Time;durP1;ratioP1;P1;durP2;ratioP2;P2;SDS_P1;SDS_P2;PMS_P1;PMS_P2;Temp;Humidity;BMP_temperature;BMP_pressure;BME280_temperature;BME280_humidity;BME280_pressure;Samples;Min_cycle;Max_cycle;Signal;HPM_P1;HPM_P2
2022/12/29 05:01:45;;;;;;;2.40;1.77;;;;;;;18.86;60.90;95730.59;24005010;23;20236;-62
2022/12/29 05:11:43;;;;;;;4.13;1.50;;;;;;;18.85;60.97;95729.78;20155424;29;20371;-62
2022/12/29 05:21:43;;;;;;;3.13;1.53;;;;;;;18.84;61.00;95709.25;20146483;29;20232;-62
2022/12/29 05:31:43;;;;;;;2.60;1.77;;;;;;;18.83;60.92;95745.53;20162036;29;20276;-60
2022/12/29 05:41:45;;;;;;;4.83;1.90;;;;;;;18.82;60.97;95725.00;20148971;29;20216;-62
2022/12/29 05:51:55;;;;;;;2.40;1.40;;;;;;;18.81;60.71;95730.69;20149418;29;20228;-62
2022/12/29 06:01:55;;;;;;;2.57;1.53;;;;;;;18.82;60.78;95716.06;20143368;29;20234;-61
2022/12/29 06:11:53;;;;;;;3.20;1.57;;;;;;;18.82;60.68;95697.13;20142705;29;20223;-63
2022/12/29 06:21:53;;;;;;;3.40;1.80;;;;;;;18.82;60.81;95722.28;20213325;29;20238;-59
2022/12/29 06:31:55;;;;;;;2.97;1.80;;;;;;;17.89;55.54;95723.06;20218740;29;20246;-72
2022/12/29 06:41:56;;;;;;;3.10;1.33;;;;;;;18.69;55.25;95719.63;20217527;29;20520;-60
2022/12/29 06:52:13;;;;;;;3.77;1.67;;;;;;;18.91;54.68;95711.50;20200880;29;20442;-60
2022/12/29 07:02:14;;;;;;;1.73;1.20;;;;;;;19.13;55.90;95710.69;20162540;29;20228;-61
2022/12/29 07:12:14;;;;;;;3.87;1.60;;;;;;;19.30;55.49;95722.38;20191225;29;20428;-60
2022/12/29 07:22:13;;;;;;;2.13;1.63;;;;;;;19.35;56.01;95719.56;20154447;29;20224;-59
2022/12/29 07:32:11;;;;;;;2.87;1.40;;;;;;;19.30;56.62;95729.69;20151684;29;20248;-59
2022/12/29 07:42:11;;;;;;;5.03;1.73;;;;;;;19.23;57.00;95748.31;20151757;29;20268;-61
2022/12/29 07:52:14;;;;;;;4.37;1.80;;;;;;;19.16;56.99;95737.13;20134725;29;20245;-58
2022/12/29 08:02:13;;;;;;;4.60;1.73;;;;;;;19.15;57.61;95730.09;20095499;29;20239;-59
2022/12/29 08:12:14;;;;;;;4.23;1.90;;;;;;;19.49;56.80;95757.38;20067660;29;20739;-56
2022/12/29 08:22:14;;;;;;;4.93;1.70;;;;;;;19.26;57.70;95755.81;20071467;29;20232;-57
2022/12/29 08:32:14;;;;;;;3.40;1.70;;;;;;;19.21;58.07;95753.22;20072178;29;20232;-58
2022/12/29 08:42:13;;;;;;;4.23;2.00;;;;;;;19.22;58.42;95758.34;20073312;29;20395;-57
2022/12/29 08:52:12;;;;;;;4.67;1.70;;;;;;;19.27;58.43;95747.38;20086119;29;20232;-61
2022/12/29 09:02:12;;;;;;;7.67;1.80;;;;;;;19.27;58.58;95760.91;20085528;29;20240;-63
2022/12/29 09:12:17;;;;;;;4.57;1.90;;;;;;;19.27;58.84;95766.31;20085135;29;20237;-63
2022/12/29 09:22:16;;;;;;;2.77;1.70;;;;;;;19.31;58.80;95772.72;20084231;29;20281;-61
2022/12/29 09:32:14;;;;;;;3.43;1.60;;;;;;;19.30;59.00;95786.53;20083538;29;20221;-62
2022/12/29 09:42:23;;;;;;;2.10;1.47;;;;;;;19.31;59.01;95791.66;20082957;29;20240;-64
2022/12/29 09:52:25;;;;;;;3.13;2.00;;;;;;;19.29;59.25;95801.22;20082558;29;20218;-65
2022/12/29 10:02:40;;;;;;;4.30;1.87;;;;;;;19.37;59.73;95800.44;20064229;29;20241;-63
2022/12/29 10:12:54;;;;;;;4.07;1.90;;;;;;;19.28;59.62;95803.09;20080839;29;20292;-66
2022/12/29 10:23:15;;;;;;;4.70;1.73;;;;;;;19.30;59.49;95795.47;20079863;29;20546;-66
2022/12/29 10:33:18;;;;;;;2.57;1.67;;;;;;;19.35;59.11;95781.03;20079120;29;20280;-61
2022/12/29 10:43:25;;;;;;;6.80;1.90;;;;;;;19.71;59.25;95797.16;20078478;29;20233;-60
2022/12/29 10:53:28;;;;;;;3.90;1.60;;;;;;;19.77;59.16;95785.88;20077558;29;20221;-62
2022/12/29 11:03:55;;;;;;;5.03;1.70;;;;;;;19.55;59.38;95784.00;20076650;29;20233;-59
2022/12/29 11:13:59;;;;;;;23.93;7.07;;;;;;;19.45;60.62;95797.00;20072421;29;20237;-61
2022/12/29 11:24:03;;;;;;;12.07;3.57;;;;;;;19.40;61.26;95810.69;20075615;29;20357;-63
2022/12/29 11:34:07;;;;;;;14.63;4.37;;;;;;;19.36;62.05;95831.31;20058441;29;20233;-63
2022/12/29 11:44:07;;;;;;;9.30;3.80;;;;;;;19.39;62.57;95823.41;20074002;29;20222;-63
2022/12/29 11:54:06;;;;;;;11.23;3.43;;;;;;;19.34;63.13;95823.53;20056150;29;20229;-63
2022/12/29 12:04:11;;;;;;;10.10;3.50;;;;;;;19.32;63.11;95803.28;20069195;29;20236;-61
2022/12/29 12:14:17;;;;;;;9.23;3.50;;;;;;;19.30;62.94;95792.75;20070908;29;20244;-63
2022/12/29 12:24:41;;;;;;;9.60;3.40;;;;;;;19.31;63.08;95793.56;20069220;29;20220;-64
2022/12/29 12:34:43;;;;;;;12.10;3.30;;;;;;;19.34;63.89;95795.66;20071151;29;20273;-62
2022/12/29 12:44:59;;;;;;;16.03;3.93;;;;;;;19.32;63.32;95785.16;20070261;29;20288;-61
2022/12/29 12:55:11;;;;;;;10.40;3.10;;;;;;;19.32;63.37;95766.19;20063070;29;20221;-61
2022/12/29 13:05:39;;;;;;;10.50;3.20;;;;;;;19.32;63.21;95777.03;20063297;29;20257;-66
2022/12/29 13:15:46;;;;;;;7.97;3.17;;;;;;;19.32;63.06;95768.91;20062431;29;20235;-64
2022/12/29 13:25:52;;;;;;;18.30;3.90;;;;;;;19.27;63.12;95760.09;20062376;29;20236;-65
2022/12/29 13:35:58;;;;;;;5.73;2.67;;;;;;;19.24;63.29;95753.41;20076286;29;20218;-66
2022/12/29 13:46:01;;;;;;;10.70;3.27;;;;;;;19.24;63.19;95753.41;20075764;29;20221;-66
2022/12/29 13:56:08;;;;;;;9.20;3.30;;;;;;;19.24;63.40;95752.59;20073850;29;20217;-64
2022/12/29 14:06:16;;;;;;;5.63;2.57;;;;;;;19.24;63.08;95749.88;20076279;29;20524;-64
2022/12/29 14:16:33;;;;;;;6.30;3.03;;;;;;;19.22;63.23;95763.75;20073144;29;20223;-65
2022/12/29 14:26:36;;;;;;;6.80;2.60;;;;;;;19.23;63.30;95759.94;20074150;29;20277;-65
2022/12/29 14:36:36;;;;;;;5.90;2.57;;;;;;;19.20;63.11;95762.47;20073314;29;20233;-63
2022/12/29 14:47:00;;;;;;;5.57;2.13;;;;;;;19.22;63.29;95763.75;20071970;29;20224;-54
2022/12/29 14:56:59;;;;;;;21.97;3.00;;;;;;;19.20;62.90;95767.88;20076544;29;20263;-55
2022/12/29 15:07:03;;;;;;;8.70;2.73;;;;;;;19.14;63.02;95761.81;20075823;29;20233;-55
2022/12/29 15:17:01;;;;;;;9.33;2.67;;;;;;;19.12;62.92;95776.72;20060414;29;20229;-55
2022/12/29 15:27:04;;;;;;;7.93;3.00;;;;;;;19.10;63.26;95785.16;20074617;29;20233;-56
2022/12/29 15:37:06;;;;;;;11.40;2.60;;;;;;;19.09;62.64;95796.28;20057691;29;20240;-56
2022/12/29 15:47:12;;;;;;;7.80;2.63;;;;;;;19.08;62.91;95829.88;20074112;29;20217;-56
2022/12/29 15:57:22;;;;;;;5.57;2.30;;;;;;;19.07;63.03;95845.31;20079833;29;20340;-55
2022/12/29 16:07:27;;;;;;;5.13;2.13;;;;;;;19.06;62.95;95845.59;20040695;29;20241;-56
2022/12/29 16:17:28;;;;;;;5.20;2.00;;;;;;;19.04;62.69;95843.22;20054969;29;20233;-55
2022/12/29 16:27:33;;;;;;;8.27;2.70;;;;;;;19.06;62.92;95845.59;20070090;29;20221;-60
2022/12/29 16:37:36;;;;;;;8.47;2.80;;;;;;;19.29;62.23;95850.72;20067749;29;21066;-64
2022/12/29 16:47:35;;;;;;;7.47;2.10;;;;;;;19.15;62.83;95873.53;20070269;29;20269;-63
2022/12/29 16:57:36;;;;;;;9.33;2.20;;;;;;;19.15;63.53;95881.66;20053737;29;20244;-62
2022/12/29 17:07:36;;;;;;;9.10;2.30;;;;;;;19.16;63.75;95880.56;20077002;29;20229;-60
2022/12/29 17:17:36;;;;;;;6.13;2.47;;;;;;;19.21;63.42;95886.63;20084407;29;20273;-59
2022/12/29 17:27:42;;;;;;;9.50;2.60;;;;;;;19.45;63.59;95881.75;20082356;29;20277;-59
2022/12/29 17:37:40;;;;;;;9.87;2.30;;;;;;;19.53;63.51;95897.28;20083556;29;20245;-59
2022/12/29 17:47:39;;;;;;;7.40;2.33;;;;;;;19.59;63.81;95889.81;20082984;29;20438;-58
2022/12/29 17:57:37;;;;;;;5.47;2.33;;;;;;;19.70;63.92;95885.72;20082540;29;20224;-59
2022/12/29 18:07:36;;;;;;;11.10;2.00;;;;;;;19.73;63.76;95916.81;20081096;29;20221;-59
2022/12/29 18:17:34;;;;;;;8.37;2.13;;;;;;;19.70;63.76;95917.44;20085107;29;20216;-59
2022/12/29 18:27:33;;;;;;;7.87;2.50;;;;;;;19.67;63.67;95912.63;20079576;29;20218;-59
2022/12/29 18:37:31;;;;;;;6.53;2.03;;;;;;;19.61;64.06;95917.38;20082040;29;20300;-59
2022/12/29 18:47:31;;;;;;;6.20;2.20;;;;;;;19.61;64.04;95916.56;20082182;29;20229;-61
2022/12/29 18:57:30;;;;;;;5.73;1.80;;;;;;;19.55;64.13;95937.56;20074772;29;20524;-62
2022/12/29 19:07:30;;;;;;;6.90;2.37;;;;;;;19.51;64.31;95931.97;20084484;29;20247;-61
2022/12/29 19:17:28;;;;;;;6.07;1.83;;;;;;;19.51;63.96;95934.66;20078012;29;20243;-58
2022/12/29 19:27:27;;;;;;;6.13;2.30;;;;;;;19.50;63.63;95938.50;20072615;29;20230;-58
2022/12/29 19:37:25;;;;;;;5.33;2.10;;;;;;;19.55;64.27;95937.56;20083840;29;20300;-56
2022/12/29 19:47:24;;;;;;;5.07;1.83;;;;;;;19.60;63.98;95925.81;20052358;29;20229;-57
2022/12/29 19:57:28;;;;;;;5.40;1.67;;;;;;;19.64;63.91;95926.78;20067423;29;20241;-57
2022/12/29 20:07:28;;;;;;;4.60;1.97;;;;;;;19.63;63.79;95936.03;20066672;29;20217;-58
2022/12/29 20:17:26;;;;;;;8.67;2.07;;;;;;;19.60;63.85;95959.09;20048890;29;20381;-58
2022/12/29 20:27:48;;;;;;;6.17;2.80;;;;;;;19.58;63.93;95972.16;20048534;29;20224;-58
2022/12/29 20:37:46;;;;;;;9.30;2.30;;;;;;;19.57;64.23;95973.25;20048692;29;20299;-58
2022/12/29 20:47:45;;;;;;;4.80;1.73;;;;;;;19.52;63.71;95990.44;20082757;29;20488;-58
2022/12/29 20:57:43;;;;;;;8.47;1.97;;;;;;;19.51;63.92;95998.84;20083905;29;20233;-54
2022/12/29 21:08:02;;;;;;;6.10;2.27;;;;;;;19.47;63.82;96008.72;20086526;29;20271;-56
2022/12/29 21:18:00;;;;;;;5.80;1.90;;;;;;;19.44;64.11;96009.31;20136284;23;20300;-60
2022/12/29 21:27:59;;;;;;;6.00;2.10;;;;;;;19.40;64.15;96022.66;20163155;29;20308;-61
2022/12/29 21:37:57;;;;;;;5.73;2.10;;;;;;;19.37;64.81;96027.84;20164358;29;20232;-58
